sensor_id;sensor_type;location;lat;lon;timestamp;temperature;humidity
9984;DHT22;16737;50.932;6.780;2023-02-16T00:01:21;7.00;91.90
9984;DHT22;16737;50.932;6.780;2023-02-16T00:03:51;7.00;91.90
9984;DHT22;16737;50.932;6.780;2023-02-16T00:06:19;7.00;91.80
9984;DHT22;16737;50.932;6.780;2023-02-16T00:08:49;7.00;91.80
9984;DHT22;16737;50.932;6.780;2023-02-16T00:11:20;7.00;91.80
9984;DHT22;16737;50.932;6.780;2023-02-16T00:14:10;7.00;91.70
9984;DHT22;16737;50.932;6.780;2023-02-16T00:16:37;6.90;91.60
9984;DHT22;16737;50.932;6.780;2023-02-16T00:19:20;6.90;91.60
9984;DHT22;16737;50.932;6.780;2023-02-16T00:21:50;6.80;91.80
9984;DHT22;16737;50.932;6.780;2023-02-16T00:24:20;6.80;91.70
9984;DHT22;16737;50.932;6.780;2023-02-16T00:26:48;6.80;91.70
9984;DHT22;16737;50.932;6.780;2023-02-16T00:29:19;6.70;91.60
9984;DHT22;16737;50.932;6.780;2023-02-16T00:31:50;6.70;91.70
9984;DHT22;16737;50.932;6.780;2023-02-16T00:34:25;6.60;91.70
9984;DHT22;16737;50.932;6.780;2023-02-16T00:36:55;6.60;91.80
9984;DHT22;16737;50.932;6.780;2023-02-16T00:39:25;6.60;91.70
9984;DHT22;16737;50.932;6.780;2023-02-16T00:41:54;6.60;91.80
9984;DHT22;16737;50.932;6.780;2023-02-16T00:44:29;6.50;91.80
9984;DHT22;16737;50.932;6.780;2023-02-16T00:47:00;6.50;91.80
9984;DHT22;16737;50.932;6.780;2023-02-16T00:49:29;6.50;91.80
9984;DHT22;16737;50.932;6.780;2023-02-16T00:51:57;6.40;91.80
9984;DHT22;16737;50.932;6.780;2023-02-16T00:54:25;6.40;91.80
9984;DHT22;16737;50.932;6.780;2023-02-16T00:56:52;6.40;91.80
9984;DHT22;16737;50.932;6.780;2023-02-16T00:59:21;6.40;91.70
9984;DHT22;16737;50.932;6.780;2023-02-16T01:01:49;6.40;91.80
9984;DHT22;16737;50.932;6.780;2023-02-16T01:04:19;6.30;91.80
9984;DHT22;16737;50.932;6.780;2023-02-16T01:06:48;6.30;91.80
9984;DHT22;16737;50.932;6.780;2023-02-16T01:09:34;6.30;91.80
9984;DHT22;16737;50.932;6.780;2023-02-16T01:12:20;6.30;91.80
9984;DHT22;16737;50.932;6.780;2023-02-16T01:14:51;6.20;91.70
9984;DHT22;16737;50.932;6.780;2023-02-16T01:17:19;6.20;91.80
9984;DHT22;16737;50.932;6.780;2023-02-16T01:19:47;6.20;91.80
9984;DHT22;16737;50.932;6.780;2023-02-16T01:22:14;6.10;91.80
9984;DHT22;16737;50.932;6.780;2023-02-16T01:24:42;6.10;91.80
9984;DHT22;16737;50.932;6.780;2023-02-16T01:27:11;6.10;91.90
9984;DHT22;16737;50.932;6.780;2023-02-16T01:29:39;6.10;91.90
9984;DHT22;16737;50.932;6.780;2023-02-16T01:32:06;6.10;91.90
9984;DHT22;16737;50.932;6.780;2023-02-16T01:34:32;6.00;91.80
9984;DHT22;16737;50.932;6.780;2023-02-16T01:36:59;6.00;91.90
9984;DHT22;16737;50.932;6.780;2023-02-16T01:39:26;6.00;91.90
9984;DHT22;16737;50.932;6.780;2023-02-16T01:42:08;6.00;91.90
9984;DHT22;16737;50.932;6.780;2023-02-16T01:44:44;5.90;92.10
9984;DHT22;16737;50.932;6.780;2023-02-16T01:47:25;5.90;92.00
9984;DHT22;16737;50.932;6.780;2023-02-16T01:50:13;5.90;92.10
9984;DHT22;16737;50.932;6.780;2023-02-16T01:52:44;5.90;92.10
9984;DHT22;16737;50.932;6.780;2023-02-16T01:55:19;5.90;91.90
9984;DHT22;16737;50.932;6.780;2023-02-16T01:57:55;5.80;91.90
9984;DHT22;16737;50.932;6.780;2023-02-16T02:00:28;5.80;91.90
9984;DHT22;16737;50.932;6.780;2023-02-16T02:03:15;5.70;91.80
9984;DHT22;16737;50.932;6.780;2023-02-16T02:06:03;5.70;91.90
9984;DHT22;16737;50.932;6.780;2023-02-16T02:08:36;5.70;91.80
9984;DHT22;16737;50.932;6.780;2023-02-16T02:11:10;5.60;91.80
9984;DHT22;16737;50.932;6.780;2023-02-16T02:13:46;5.60;91.70
9984;DHT22;16737;50.932;6.780;2023-02-16T02:16:19;5.50;91.80
9984;DHT22;16737;50.932;6.780;2023-02-16T02:18:47;5.50;91.70
9984;DHT22;16737;50.932;6.780;2023-02-16T02:21:32;5.50;91.80
9984;DHT22;16737;50.932;6.780;2023-02-16T02:25:17;5.40;91.90
9984;DHT22;16737;50.932;6.780;2023-02-16T02:28:08;5.40;92.00
9984;DHT22;16737;50.932;6.780;2023-02-16T02:30:48;5.30;91.80
9984;DHT22;16737;50.932;6.780;2023-02-16T02:33:33;5.30;91.80
9984;DHT22;16737;50.932;6.780;2023-02-16T02:36:19;5.20;91.80
9984;DHT22;16737;50.932;6.780;2023-02-16T02:39:00;5.20;91.90
9984;DHT22;16737;50.932;6.780;2023-02-16T02:41:37;5.20;91.90
9984;DHT22;16737;50.932;6.780;2023-02-16T02:44:32;5.10;91.90
9984;DHT22;16737;50.932;6.780;2023-02-16T02:47:05;5.10;91.90
9984;DHT22;16737;50.932;6.780;2023-02-16T02:49:32;5.10;91.90
9984;DHT22;16737;50.932;6.780;2023-02-16T02:51:59;5.10;91.90
9984;DHT22;16737;50.932;6.780;2023-02-16T02:54:29;5.00;92.00
9984;DHT22;16737;50.932;6.780;2023-02-16T02:57:18;5.00;92.00
9984;DHT22;16737;50.932;6.780;2023-02-16T03:00:11;5.00;92.00
9984;DHT22;16737;50.932;6.780;2023-02-16T03:03:03;5.00;91.90
9984;DHT22;16737;50.932;6.780;2023-02-16T03:05:36;5.00;91.90
9984;DHT22;16737;50.932;6.780;2023-02-16T03:08:09;4.90;91.90
9984;DHT22;16737;50.932;6.780;2023-02-16T03:10:41;4.90;92.10
9984;DHT22;16737;50.932;6.780;2023-02-16T03:13:31;4.90;92.10
9984;DHT22;16737;50.932;6.780;2023-02-16T03:16:07;4.80;92.10
9984;DHT22;16737;50.932;6.780;2023-02-16T03:18:39;4.80;92.30
9984;DHT22;16737;50.932;6.780;2023-02-16T03:21:26;4.80;92.20
9984;DHT22;16737;50.932;6.780;2023-02-16T03:24:14;4.80;92.10
9984;DHT22;16737;50.932;6.780;2023-02-16T03:27:03;4.80;92.20
9984;DHT22;16737;50.932;6.780;2023-02-16T03:29:50;4.80;92.10
9984;DHT22;16737;50.932;6.780;2023-02-16T03:32:20;4.70;92.10
9984;DHT22;16737;50.932;6.780;2023-02-16T03:34:47;4.70;92.10
9984;DHT22;16737;50.932;6.780;2023-02-16T03:37:14;4.70;92.10
9984;DHT22;16737;50.932;6.780;2023-02-16T03:39:41;4.70;92.20
9984;DHT22;16737;50.932;6.780;2023-02-16T03:42:23;4.70;92.30
9984;DHT22;16737;50.932;6.780;2023-02-16T03:44:50;4.70;92.30
9984;DHT22;16737;50.932;6.780;2023-02-16T03:47:17;4.70;92.40
9984;DHT22;16737;50.932;6.780;2023-02-16T03:49:46;4.70;92.40
9984;DHT22;16737;50.932;6.780;2023-02-16T03:52:13;4.70;92.40
9984;DHT22;16737;50.932;6.780;2023-02-16T03:54:40;4.60;92.40
9984;DHT22;16737;50.932;6.780;2023-02-16T03:57:07;4.60;92.50
9984;DHT22;16737;50.932;6.780;2023-02-16T03:59:33;4.70;92.70
9984;DHT22;16737;50.932;6.780;2023-02-16T04:02:00;4.70;92.80
9984;DHT22;16737;50.932;6.780;2023-02-16T04:04:29;4.70;92.80
9984;DHT22;16737;50.932;6.780;2023-02-16T04:06:56;4.70;92.80
9984;DHT22;16737;50.932;6.780;2023-02-16T04:09:23;4.70;92.80
9984;DHT22;16737;50.932;6.780;2023-02-16T04:11:50;4.70;92.80
9984;DHT22;16737;50.932;6.780;2023-02-16T04:14:34;4.70;92.80
9984;DHT22;16737;50.932;6.780;2023-02-16T04:17:01;4.70;92.80
9984;DHT22;16737;50.932;6.780;2023-02-16T04:19:29;4.80;93.00
9984;DHT22;16737;50.932;6.780;2023-02-16T04:21:56;4.80;93.00
9984;DHT22;16737;50.932;6.780;2023-02-16T04:24:23;4.80;93.00
9984;DHT22;16737;50.932;6.780;2023-02-16T04:26:50;4.80;93.00
9984;DHT22;16737;50.932;6.780;2023-02-16T04:29:17;4.80;93.00
9984;DHT22;16737;50.932;6.780;2023-02-16T04:31:44;4.80;92.90
9984;DHT22;16737;50.932;6.780;2023-02-16T04:34:11;4.80;92.90
9984;DHT22;16737;50.932;6.780;2023-02-16T04:36:39;4.80;92.80
9984;DHT22;16737;50.932;6.780;2023-02-16T04:39:06;4.80;92.80
9984;DHT22;16737;50.932;6.780;2023-02-16T04:41:33;4.80;92.70
9984;DHT22;16737;50.932;6.780;2023-02-16T04:44:00;4.80;92.80
9984;DHT22;16737;50.932;6.780;2023-02-16T04:46:26;4.80;92.80
9984;DHT22;16737;50.932;6.780;2023-02-16T04:48:55;4.80;92.80
9984;DHT22;16737;50.932;6.780;2023-02-16T04:51:22;4.80;92.80
9984;DHT22;16737;50.932;6.780;2023-02-16T04:53:51;4.80;92.80
9984;DHT22;16737;50.932;6.780;2023-02-16T04:56:18;4.80;92.80
9984;DHT22;16737;50.932;6.780;2023-02-16T04:58:45;4.80;92.80
9984;DHT22;16737;50.932;6.780;2023-02-16T05:01:18;4.80;92.80
9984;DHT22;16737;50.932;6.780;2023-02-16T05:03:45;4.80;93.00
9984;DHT22;16737;50.932;6.780;2023-02-16T05:06:13;4.80;92.90
9984;DHT22;16737;50.932;6.780;2023-02-16T05:08:40;4.80;92.90
9984;DHT22;16737;50.932;6.780;2023-02-16T05:11:08;4.70;92.80
9984;DHT22;16737;50.932;6.780;2023-02-16T05:13:57;4.70;92.80
9984;DHT22;16737;50.932;6.780;2023-02-16T05:16:42;4.70;92.90
9984;DHT22;16737;50.932;6.780;2023-02-16T05:19:10;4.70;92.80
9984;DHT22;16737;50.932;6.780;2023-02-16T05:21:37;4.70;92.90
9984;DHT22;16737;50.932;6.780;2023-02-16T05:24:06;4.70;93.00
9984;DHT22;16737;50.932;6.780;2023-02-16T05:26:37;4.70;93.00
9984;DHT22;16737;50.932;6.780;2023-02-16T05:29:05;4.70;93.10
9984;DHT22;16737;50.932;6.780;2023-02-16T05:31:32;4.70;93.10
9984;DHT22;16737;50.932;6.780;2023-02-16T05:33:59;4.70;93.10
9984;DHT22;16737;50.932;6.780;2023-02-16T05:36:25;4.70;93.20
9984;DHT22;16737;50.932;6.780;2023-02-16T05:38:52;4.70;93.20
9984;DHT22;16737;50.932;6.780;2023-02-16T05:41:19;4.70;93.20
9984;DHT22;16737;50.932;6.780;2023-02-16T05:43:51;4.70;93.20
9984;DHT22;16737;50.932;6.780;2023-02-16T05:46:19;4.70;93.20
9984;DHT22;16737;50.932;6.780;2023-02-16T05:48:47;4.70;93.20
9984;DHT22;16737;50.932;6.780;2023-02-16T05:51:14;4.70;93.20
9984;DHT22;16737;50.932;6.780;2023-02-16T05:53:41;4.70;93.30
9984;DHT22;16737;50.932;6.780;2023-02-16T05:56:08;4.70;93.30
9984;DHT22;16737;50.932;6.780;2023-02-16T05:58:36;4.70;93.30
9984;DHT22;16737;50.932;6.780;2023-02-16T06:01:05;4.70;93.40
9984;DHT22;16737;50.932;6.780;2023-02-16T06:03:32;4.70;93.40
9984;DHT22;16737;50.932;6.780;2023-02-16T06:06:01;4.70;93.40
9984;DHT22;16737;50.932;6.780;2023-02-16T06:08:29;4.70;93.40
9984;DHT22;16737;50.932;6.780;2023-02-16T06:10:57;4.70;93.40
9984;DHT22;16737;50.932;6.780;2023-02-16T06:13:27;4.70;93.40
9984;DHT22;16737;50.932;6.780;2023-02-16T06:15:55;4.80;93.50
9984;DHT22;16737;50.932;6.780;2023-02-16T06:18:24;4.80;93.50
9984;DHT22;16737;50.932;6.780;2023-02-16T06:20:51;4.80;93.50
9984;DHT22;16737;50.932;6.780;2023-02-16T06:23:21;4.80;93.50
9984;DHT22;16737;50.932;6.780;2023-02-16T06:25:49;4.80;93.50
9984;DHT22;16737;50.932;6.780;2023-02-16T06:28:16;4.70;93.50
9984;DHT22;16737;50.932;6.780;2023-02-16T06:30:43;4.80;93.60
9984;DHT22;16737;50.932;6.780;2023-02-16T06:33:10;4.80;93.70
9984;DHT22;16737;50.932;6.780;2023-02-16T06:35:38;4.90;94.00
9984;DHT22;16737;50.932;6.780;2023-02-16T06:38:05;4.90;93.70
9984;DHT22;16737;50.932;6.780;2023-02-16T06:40:32;4.90;93.70
9984;DHT22;16737;50.932;6.780;2023-02-16T06:42:59;4.90;93.70
9984;DHT22;16737;50.932;6.780;2023-02-16T06:45:27;4.90;93.70
9984;DHT22;16737;50.932;6.780;2023-02-16T06:47:59;4.90;93.70
9984;DHT22;16737;50.932;6.780;2023-02-16T06:50:26;4.90;93.70
9984;DHT22;16737;50.932;6.780;2023-02-16T06:52:55;5.00;93.70
9984;DHT22;16737;50.932;6.780;2023-02-16T06:55:22;5.00;93.80
9984;DHT22;16737;50.932;6.780;2023-02-16T06:57:49;5.00;93.80
9984;DHT22;16737;50.932;6.780;2023-02-16T07:00:16;5.00;93.80
9984;DHT22;16737;50.932;6.780;2023-02-16T07:02:44;5.10;93.80
9984;DHT22;16737;50.932;6.780;2023-02-16T07:05:11;5.10;93.90
9984;DHT22;16737;50.932;6.780;2023-02-16T07:07:41;5.10;93.90
9984;DHT22;16737;50.932;6.780;2023-02-16T07:10:10;5.10;94.00
9984;DHT22;16737;50.932;6.780;2023-02-16T07:12:37;5.10;94.10
9984;DHT22;16737;50.932;6.780;2023-02-16T07:15:04;5.20;94.20
9984;DHT22;16737;50.932;6.780;2023-02-16T07:17:32;5.20;94.20
9984;DHT22;16737;50.932;6.780;2023-02-16T07:19:59;5.30;94.20
9984;DHT22;16737;50.932;6.780;2023-02-16T07:22:26;5.30;94.30
9984;DHT22;16737;50.932;6.780;2023-02-16T07:24:54;5.40;94.30
9984;DHT22;16737;50.932;6.780;2023-02-16T07:27:23;5.40;94.40
9984;DHT22;16737;50.932;6.780;2023-02-16T07:29:50;5.40;94.40
9984;DHT22;16737;50.932;6.780;2023-02-16T07:32:20;5.50;94.40
9984;DHT22;16737;50.932;6.780;2023-02-16T07:34:47;5.50;94.40
9984;DHT22;16737;50.932;6.780;2023-02-16T07:37:16;5.60;94.40
9984;DHT22;16737;50.932;6.780;2023-02-16T07:39:44;5.60;94.40
9984;DHT22;16737;50.932;6.780;2023-02-16T07:42:11;5.60;94.40
9984;DHT22;16737;50.932;6.780;2023-02-16T07:44:39;5.60;94.40
9984;DHT22;16737;50.932;6.780;2023-02-16T07:47:06;5.70;94.40
9984;DHT22;16737;50.932;6.780;2023-02-16T07:49:32;5.70;94.40
9984;DHT22;16737;50.932;6.780;2023-02-16T07:51:59;5.70;94.50
9984;DHT22;16737;50.932;6.780;2023-02-16T07:54:26;5.80;94.50
9984;DHT22;16737;50.932;6.780;2023-02-16T07:56:53;5.80;94.50
9984;DHT22;16737;50.932;6.780;2023-02-16T07:59:20;5.80;94.50
9984;DHT22;16737;50.932;6.780;2023-02-16T08:01:48;5.80;94.50
9984;DHT22;16737;50.932;6.780;2023-02-16T08:04:15;5.90;94.60
9984;DHT22;16737;50.932;6.780;2023-02-16T08:06:42;5.90;94.60
9984;DHT22;16737;50.932;6.780;2023-02-16T08:09:11;5.90;94.70
9984;DHT22;16737;50.932;6.780;2023-02-16T08:11:38;5.90;94.70
9984;DHT22;16737;50.932;6.780;2023-02-16T08:14:05;6.00;94.80
9984;DHT22;16737;50.932;6.780;2023-02-16T08:16:32;6.00;94.80
9984;DHT22;16737;50.932;6.780;2023-02-16T08:19:01;6.10;94.80
9984;DHT22;16737;50.932;6.780;2023-02-16T08:21:31;6.10;94.80
9984;DHT22;16737;50.932;6.780;2023-02-16T08:24:00;6.10;94.80
9984;DHT22;16737;50.932;6.780;2023-02-16T08:26:33;6.20;94.80
9984;DHT22;16737;50.932;6.780;2023-02-16T08:29:03;6.30;94.90
9984;DHT22;16737;50.932;6.780;2023-02-16T08:31:33;6.30;94.80
9984;DHT22;16737;50.932;6.780;2023-02-16T08:34:02;6.30;94.80
9984;DHT22;16737;50.932;6.780;2023-02-16T08:36:31;6.30;94.80
9984;DHT22;16737;50.932;6.780;2023-02-16T08:39:00;6.40;94.80
9984;DHT22;16737;50.932;6.780;2023-02-16T08:41:31;6.40;94.90
9984;DHT22;16737;50.932;6.780;2023-02-16T08:44:00;6.40;95.30
9984;DHT22;16737;50.932;6.780;2023-02-16T08:46:29;6.50;95.00
9984;DHT22;16737;50.932;6.780;2023-02-16T08:48:57;6.50;95.00
9984;DHT22;16737;50.932;6.780;2023-02-16T08:51:29;6.60;95.00
9984;DHT22;16737;50.932;6.780;2023-02-16T08:53:59;6.60;95.10
9984;DHT22;16737;50.932;6.780;2023-02-16T08:56:28;6.70;95.10
9984;DHT22;16737;50.932;6.780;2023-02-16T08:58:56;6.70;95.10
9984;DHT22;16737;50.932;6.780;2023-02-16T09:01:23;6.80;95.10
9984;DHT22;16737;50.932;6.780;2023-02-16T09:03:51;6.80;95.20
9984;DHT22;16737;50.932;6.780;2023-02-16T09:06:20;6.90;95.30
9984;DHT22;16737;50.932;6.780;2023-02-16T09:08:51;7.00;95.30
9984;DHT22;16737;50.932;6.780;2023-02-16T09:11:19;7.00;95.30
9984;DHT22;16737;50.932;6.780;2023-02-16T09:13:47;7.10;95.30
9984;DHT22;16737;50.932;6.780;2023-02-16T09:16:17;7.20;95.40
9984;DHT22;16737;50.932;6.780;2023-02-16T09:18:46;7.30;95.50
9984;DHT22;16737;50.932;6.780;2023-02-16T09:21:16;7.40;95.60
9984;DHT22;16737;50.932;6.780;2023-02-16T09:23:48;7.50;95.80
9984;DHT22;16737;50.932;6.780;2023-02-16T09:26:18;7.60;95.90
9984;DHT22;16737;50.932;6.780;2023-02-16T09:28:47;7.70;95.90
9984;DHT22;16737;50.932;6.780;2023-02-16T09:31:16;7.90;96.00
9984;DHT22;16737;50.932;6.780;2023-02-16T09:33:51;8.00;96.00
9984;DHT22;16737;50.932;6.780;2023-02-16T09:36:18;8.10;96.10
9984;DHT22;16737;50.932;6.780;2023-02-16T09:38:45;8.30;96.30
9984;DHT22;16737;50.932;6.780;2023-02-16T09:41:22;8.40;96.20
9984;DHT22;16737;50.932;6.780;2023-02-16T09:44:12;8.50;96.30
9984;DHT22;16737;50.932;6.780;2023-02-16T09:46:50;8.70;96.20
9984;DHT22;16737;50.932;6.780;2023-02-16T09:49:29;8.80;96.00
9984;DHT22;16737;50.932;6.780;2023-02-16T09:52:03;8.90;95.90
9984;DHT22;16737;50.932;6.780;2023-02-16T09:54:43;9.00;95.90
9984;DHT22;16737;50.932;6.780;2023-02-16T09:57:20;9.10;95.80
9984;DHT22;16737;50.932;6.780;2023-02-16T10:00:00;9.20;95.80
9984;DHT22;16737;50.932;6.780;2023-02-16T10:02:43;9.30;95.80
9984;DHT22;16737;50.932;6.780;2023-02-16T10:05:24;9.30;96.00
9984;DHT22;16737;50.932;6.780;2023-02-16T10:08:02;9.40;95.60
9984;DHT22;16737;50.932;6.780;2023-02-16T10:10:42;9.50;95.50
9984;DHT22;16737;50.932;6.780;2023-02-16T10:13:19;9.50;95.50
9984;DHT22;16737;50.932;6.780;2023-02-16T10:15:53;9.60;95.50
9984;DHT22;16737;50.932;6.780;2023-02-16T10:18:27;9.60;95.40
9984;DHT22;16737;50.932;6.780;2023-02-16T10:21:01;9.70;95.40
9984;DHT22;16737;50.932;6.780;2023-02-16T10:23:42;9.70;95.30
9984;DHT22;16737;50.932;6.780;2023-02-16T10:26:16;9.80;95.40
9984;DHT22;16737;50.932;6.780;2023-02-16T10:28:52;9.80;95.30
9984;DHT22;16737;50.932;6.780;2023-02-16T10:31:27;9.80;95.20
9984;DHT22;16737;50.932;6.780;2023-02-16T10:34:16;9.90;95.20
9984;DHT22;16737;50.932;6.780;2023-02-16T10:40:11;9.90;95.30
9984;DHT22;16737;50.932;6.780;2023-02-16T10:42:47;10.00;94.70
9984;DHT22;16737;50.932;6.780;2023-02-16T10:45:25;10.00;94.70
9984;DHT22;16737;50.932;6.780;2023-02-16T10:47:57;10.00;94.70
9984;DHT22;16737;50.932;6.780;2023-02-16T10:50:27;10.00;94.70
9984;DHT22;16737;50.932;6.780;2023-02-16T10:53:00;10.10;94.80
9984;DHT22;16737;50.932;6.780;2023-02-16T10:55:32;10.10;94.80
9984;DHT22;16737;50.932;6.780;2023-02-16T10:58:00;10.20;94.80
9984;DHT22;16737;50.932;6.780;2023-02-16T11:00:50;10.20;94.80
9984;DHT22;16737;50.932;6.780;2023-02-16T11:03:24;10.30;94.90
9984;DHT22;16737;50.932;6.780;2023-02-16T11:05:56;10.30;94.80
9984;DHT22;16737;50.932;6.780;2023-02-16T11:08:47;10.40;94.80
9984;DHT22;16737;50.932;6.780;2023-02-16T11:11:16;10.40;94.70
9984;DHT22;16737;50.932;6.780;2023-02-16T11:13:47;10.50;94.70
9984;DHT22;16737;50.932;6.780;2023-02-16T11:16:20;10.50;94.70
9984;DHT22;16737;50.932;6.780;2023-02-16T11:18:56;10.60;94.80
9984;DHT22;16737;50.932;6.780;2023-02-16T11:21:44;10.60;94.80
9984;DHT22;16737;50.932;6.780;2023-02-16T11:24:24;10.70;94.90
9984;DHT22;16737;50.932;6.780;2023-02-16T11:27:01;10.70;94.80
9984;DHT22;16737;50.932;6.780;2023-02-16T11:29:33;10.70;94.80
9984;DHT22;16737;50.932;6.780;2023-02-16T11:32:06;10.80;94.80
9984;DHT22;16737;50.932;6.780;2023-02-16T11:34:36;10.80;94.80
9984;DHT22;16737;50.932;6.780;2023-02-16T11:37:14;10.80;94.80
9984;DHT22;16737;50.932;6.780;2023-02-16T11:39:49;10.90;94.90
9984;DHT22;16737;50.932;6.780;2023-02-16T11:42:27;10.90;94.90
9984;DHT22;16737;50.932;6.780;2023-02-16T11:45:01;11.00;95.00
9984;DHT22;16737;50.932;6.780;2023-02-16T11:47:33;11.10;95.00
9984;DHT22;16737;50.932;6.780;2023-02-16T11:50:18;11.10;95.00
9984;DHT22;16737;50.932;6.780;2023-02-16T11:52:50;11.10;95.00
9984;DHT22;16737;50.932;6.780;2023-02-16T11:55:21;11.20;95.00
9984;DHT22;16737;50.932;6.780;2023-02-16T11:57:52;11.20;95.00
9984;DHT22;16737;50.932;6.780;2023-02-16T12:00:23;11.30;95.00
9984;DHT22;16737;50.932;6.780;2023-02-16T12:03:18;11.40;95.00
9984;DHT22;16737;50.932;6.780;2023-02-16T12:06:20;11.40;95.10
9984;DHT22;16737;50.932;6.780;2023-02-16T12:09:12;11.50;95.10
9984;DHT22;16737;50.932;6.780;2023-02-16T12:11:58;11.60;95.00
9984;DHT22;16737;50.932;6.780;2023-02-16T12:14:39;11.60;94.90
9984;DHT22;16737;50.932;6.780;2023-02-16T12:17:23;11.60;94.90
9984;DHT22;16737;50.932;6.780;2023-02-16T12:20:15;11.70;94.90
9984;DHT22;16737;50.932;6.780;2023-02-16T12:23:01;11.70;95.00
9984;DHT22;16737;50.932;6.780;2023-02-16T12:25:37;11.80;94.90
9984;DHT22;16737;50.932;6.780;2023-02-16T12:28:14;11.80;94.90
9984;DHT22;16737;50.932;6.780;2023-02-16T12:30:57;11.90;95.00
9984;DHT22;16737;50.932;6.780;2023-02-16T12:33:38;11.90;94.90
9984;DHT22;16737;50.932;6.780;2023-02-16T12:36:32;12.00;94.90
9984;DHT22;16737;50.932;6.780;2023-02-16T12:39:17;12.00;94.90
9984;DHT22;16737;50.932;6.780;2023-02-16T12:45:11;12.10;94.80
9984;DHT22;16737;50.932;6.780;2023-02-16T12:47:46;12.10;94.80
9984;DHT22;16737;50.932;6.780;2023-02-16T12:50:20;12.10;94.80
9984;DHT22;16737;50.932;6.780;2023-02-16T12:52:54;12.10;94.80
9984;DHT22;16737;50.932;6.780;2023-02-16T12:55:26;12.20;94.90
9984;DHT22;16737;50.932;6.780;2023-02-16T12:58:02;12.20;94.90
9984;DHT22;16737;50.932;6.780;2023-02-16T13:00:41;12.20;94.90
9984;DHT22;16737;50.932;6.780;2023-02-16T13:03:25;12.20;94.90
9984;DHT22;16737;50.932;6.780;2023-02-16T13:06:09;12.30;95.10
9984;DHT22;16737;50.932;6.780;2023-02-16T13:08:46;12.30;95.10
9984;DHT22;16737;50.932;6.780;2023-02-16T13:11:20;12.40;95.20
9984;DHT22;16737;50.932;6.780;2023-02-16T13:13:57;12.40;95.20
9984;DHT22;16737;50.932;6.780;2023-02-16T13:16:36;12.50;95.30
9984;DHT22;16737;50.932;6.780;2023-02-16T13:19:09;12.60;95.40
9984;DHT22;16737;50.932;6.780;2023-02-16T13:21:57;12.60;95.40
9984;DHT22;16737;50.932;6.780;2023-02-16T13:24:43;12.70;95.60
9984;DHT22;16737;50.932;6.780;2023-02-16T13:27:28;12.70;95.50
9984;DHT22;16737;50.932;6.780;2023-02-16T13:30:35;12.80;95.50
9984;DHT22;16737;50.932;6.780;2023-02-16T13:33:21;12.80;95.60
9984;DHT22;16737;50.932;6.780;2023-02-16T13:36:30;12.90;95.50
9984;DHT22;16737;50.932;6.780;2023-02-16T13:39:49;12.90;95.60
9984;DHT22;16737;50.932;6.780;2023-02-16T13:45:45;13.00;95.70
9984;DHT22;16737;50.932;6.780;2023-02-16T13:48:22;13.00;95.60
9984;DHT22;16737;50.932;6.780;2023-02-16T13:50:56;13.00;95.60
9984;DHT22;16737;50.932;6.780;2023-02-16T13:53:25;13.10;95.70
9984;DHT22;16737;50.932;6.780;2023-02-16T13:56:18;13.10;95.70
9984;DHT22;16737;50.932;6.780;2023-02-16T13:58:48;13.20;95.90
9984;DHT22;16737;50.932;6.780;2023-02-16T14:01:36;13.30;95.80
9984;DHT22;16737;50.932;6.780;2023-02-16T14:04:11;13.40;95.90
9984;DHT22;16737;50.932;6.780;2023-02-16T14:07:21;13.40;95.70
9984;DHT22;16737;50.932;6.780;2023-02-16T14:10:00;13.50;95.70
9984;DHT22;16737;50.932;6.780;2023-02-16T14:12:30;13.60;95.80
9984;DHT22;16737;50.932;6.780;2023-02-16T14:15:04;13.70;95.70
9984;DHT22;16737;50.932;6.780;2023-02-16T14:17:43;13.70;96.00
9984;DHT22;16737;50.932;6.780;2023-02-16T14:20:26;13.80;95.60
9984;DHT22;16737;50.932;6.780;2023-02-16T14:22:55;13.90;95.40
9984;DHT22;16737;50.932;6.780;2023-02-16T14:25:38;14.00;95.50
9984;DHT22;16737;50.932;6.780;2023-02-16T14:28:54;14.00;95.20
9984;DHT22;16737;50.932;6.780;2023-02-16T14:31:43;14.10;95.20
9984;DHT22;16737;50.932;6.780;2023-02-16T14:34:19;14.20;95.20
9984;DHT22;16737;50.932;6.780;2023-02-16T14:37:33;14.30;95.20
9984;DHT22;16737;50.932;6.780;2023-02-16T14:40:37;14.40;95.10
9984;DHT22;16737;50.932;6.780;2023-02-16T14:43:22;14.50;94.90
9984;DHT22;16737;50.932;6.780;2023-02-16T14:49:21;14.60;94.80
9984;DHT22;16737;50.932;6.780;2023-02-16T14:52:37;14.70;94.90
9984;DHT22;16737;50.932;6.780;2023-02-16T14:55:40;14.80;94.40
9984;DHT22;16737;50.932;6.780;2023-02-16T14:58:29;14.90;94.40
9984;DHT22;16737;50.932;6.780;2023-02-16T15:01:04;14.90;94.40
9984;DHT22;16737;50.932;6.780;2023-02-16T15:03:41;15.00;94.40
9984;DHT22;16737;50.932;6.780;2023-02-16T15:06:21;15.00;94.30
9984;DHT22;16737;50.932;6.780;2023-02-16T15:08:56;15.10;94.30
9984;DHT22;16737;50.932;6.780;2023-02-16T15:11:30;15.10;94.20
9984;DHT22;16737;50.932;6.780;2023-02-16T15:14:07;15.20;94.20
9984;DHT22;16737;50.932;6.780;2023-02-16T15:16:40;15.30;94.10
9984;DHT22;16737;50.932;6.780;2023-02-16T15:19:16;15.30;94.10
9984;DHT22;16737;50.932;6.780;2023-02-16T15:21:46;15.30;93.90
9984;DHT22;16737;50.932;6.780;2023-02-16T15:24:38;15.40;94.10
9984;DHT22;16737;50.932;6.780;2023-02-16T15:27:19;15.40;93.90
9984;DHT22;16737;50.932;6.780;2023-02-16T15:30:11;15.40;93.50
9984;DHT22;16737;50.932;6.780;2023-02-16T15:32:54;15.50;93.40
9984;DHT22;16737;50.932;6.780;2023-02-16T15:35:28;15.50;93.50
9984;DHT22;16737;50.932;6.780;2023-02-16T15:38:05;15.50;93.50
9984;DHT22;16737;50.932;6.780;2023-02-16T15:40:41;15.50;93.50
9984;DHT22;16737;50.932;6.780;2023-02-16T15:43:21;15.60;93.60
9984;DHT22;16737;50.932;6.780;2023-02-16T15:45:58;15.60;93.20
9984;DHT22;16737;50.932;6.780;2023-02-16T15:48:31;15.60;93.30
9984;DHT22;16737;50.932;6.780;2023-02-16T15:51:09;15.60;93.30
9984;DHT22;16737;50.932;6.780;2023-02-16T15:53:47;15.60;93.00
9984;DHT22;16737;50.932;6.780;2023-02-16T15:56:26;15.60;93.00
9984;DHT22;16737;50.932;6.780;2023-02-16T15:58:58;15.60;92.80
9984;DHT22;16737;50.932;6.780;2023-02-16T16:01:29;15.60;93.00
9984;DHT22;16737;50.932;6.780;2023-02-16T16:04:04;15.60;92.90
9984;DHT22;16737;50.932;6.780;2023-02-16T16:06:35;15.60;92.90
9984;DHT22;16737;50.932;6.780;2023-02-16T16:09:04;15.60;92.90
9984;DHT22;16737;50.932;6.780;2023-02-16T16:11:33;15.60;92.80
9984;DHT22;16737;50.932;6.780;2023-02-16T16:14:02;15.50;92.70
9984;DHT22;16737;50.932;6.780;2023-02-16T16:16:33;15.50;92.60
9984;DHT22;16737;50.932;6.780;2023-02-16T16:19:06;15.50;92.50
9984;DHT22;16737;50.932;6.780;2023-02-16T16:21:46;15.50;92.30
9984;DHT22;16737;50.932;6.780;2023-02-16T16:24:27;15.50;92.30
9984;DHT22;16737;50.932;6.780;2023-02-16T16:27:04;15.40;92.20
9984;DHT22;16737;50.932;6.780;2023-02-16T16:29:38;15.30;92.50
9984;DHT22;16737;50.932;6.780;2023-02-16T16:32:17;15.30;92.40
9984;DHT22;16737;50.932;6.780;2023-02-16T16:34:45;15.30;92.20
9984;DHT22;16737;50.932;6.780;2023-02-16T16:37:23;15.20;92.40
9984;DHT22;16737;50.932;6.780;2023-02-16T16:40:02;15.20;92.10
9984;DHT22;16737;50.932;6.780;2023-02-16T16:42:32;15.20;92.10
9984;DHT22;16737;50.932;6.780;2023-02-16T16:45:06;15.10;92.30
9984;DHT22;16737;50.932;6.780;2023-02-16T16:48:07;15.10;92.20
9984;DHT22;16737;50.932;6.780;2023-02-16T16:50:37;15.10;92.00
9984;DHT22;16737;50.932;6.780;2023-02-16T16:53:42;15.00;92.20
9984;DHT22;16737;50.932;6.780;2023-02-16T16:56:15;15.00;92.00
9984;DHT22;16737;50.932;6.780;2023-02-16T16:58:45;15.00;92.30